sensor_id;sensor_type;location;lat;lon;timestamp;pressure;altitude;pressure_sealevel;temperature;humidity
61109;BME280;46995;55.740;37.402;2023-02-02T00:01:54;98476.75;;;0.26;76.97
61109;BME280;46995;55.740;37.402;2023-02-02T00:04:27;98449.03;;;-0.02;77.20
61109;BME280;46995;55.740;37.402;2023-02-02T00:06:53;98461.94;;;-0.01;77.30
61109;BME280;46995;55.740;37.402;2023-02-02T00:09:22;98481.31;;;0.08;76.87
61109;BME280;46995;55.740;37.402;2023-02-02T00:11:49;98492.03;;;0.16;77.04
61109;BME280;46995;55.740;37.402;2023-02-02T00:14:16;98469.72;;;0.14;76.20
61109;BME280;46995;55.740;37.402;2023-02-02T00:16:48;98448.47;;;0.07;76.06
61109;BME280;46995;55.740;37.402;2023-02-02T00:19:22;98480.38;;;0.23;75.38
61109;BME280;46995;55.740;37.402;2023-02-02T00:21:55;98470.06;;;0.22;75.10
61109;BME280;46995;55.740;37.402;2023-02-02T00:24:22;98445.59;;;0.12;75.19
61109;BME280;46995;55.740;37.402;2023-02-02T00:26:54;98440.69;;;0.07;75.42
61109;BME280;46995;55.740;37.402;2023-02-02T00:29:25;98474.16;;;0.26;75.06
61109;BME280;46995;55.740;37.402;2023-02-02T00:31:53;98467.66;;;0.19;74.78
61109;BME280;46995;55.740;37.402;2023-02-02T00:34:19;98422.91;;;0.01;75.06
61109;BME280;46995;55.740;37.402;2023-02-02T00:36:46;98462.94;;;0.25;75.00
61109;BME280;46995;55.740;37.402;2023-02-02T00:39:20;98473.69;;;0.33;74.64
61109;BME280;46995;55.740;37.402;2023-02-02T00:41:46;98476.91;;;0.37;74.75
61109;BME280;46995;55.740;37.402;2023-02-02T00:44:13;98460.22;;;0.27;74.65
61109;BME280;46995;55.740;37.402;2023-02-02T00:46:58;98461.91;;;0.28;74.35
61109;BME280;46995;55.740;37.402;2023-02-02T00:49:24;98470.25;;;0.33;74.20
61109;BME280;46995;55.740;37.402;2023-02-02T00:51:50;98417.44;;;-0.09;74.35
61109;BME280;46995;55.740;37.402;2023-02-02T00:54:16;98438.41;;;-0.12;74.44
61109;BME280;46995;55.740;37.402;2023-02-02T00:56:42;98450.97;;;-0.20;74.81
61109;BME280;46995;55.740;37.402;2023-02-02T00:59:10;98463.59;;;-0.28;75.35
61109;BME280;46995;55.740;37.402;2023-02-02T01:01:37;98479.50;;;-0.34;75.72
61109;BME280;46995;55.740;37.402;2023-02-02T01:04:06;98432.41;;;-0.70;75.83
61109;BME280;46995;55.740;37.402;2023-02-02T01:06:32;98434.41;;;-0.75;76.24
61109;BME280;46995;55.740;37.402;2023-02-02T01:09:00;98429.41;;;-0.78;76.14
61109;BME280;46995;55.740;37.402;2023-02-02T01:11:25;98433.94;;;-0.82;76.21
61109;BME280;46995;55.740;37.402;2023-02-02T01:13:52;98470.16;;;-0.66;76.27
61109;BME280;46995;55.740;37.402;2023-02-02T01:16:18;98446.25;;;-0.86;76.70
61109;BME280;46995;55.740;37.402;2023-02-02T01:18:47;98431.03;;;-0.92;76.70
61109;BME280;46995;55.740;37.402;2023-02-02T01:21:13;98453.66;;;-0.79;76.67
61109;BME280;46995;55.740;37.402;2023-02-02T01:23:39;98457.91;;;-0.78;76.33
61109;BME280;46995;55.740;37.402;2023-02-02T01:26:08;98453.00;;;-0.83;76.72
61109;BME280;46995;55.740;37.402;2023-02-02T01:28:34;98442.88;;;-0.88;76.40
61109;BME280;46995;55.740;37.402;2023-02-02T01:31:06;98454.22;;;-0.74;76.53
61109;BME280;46995;55.740;37.402;2023-02-02T01:33:32;98423.84;;;-0.87;76.57
61109;BME280;46995;55.740;37.402;2023-02-02T01:36:01;98443.81;;;-0.59;76.22
61109;BME280;46995;55.740;37.402;2023-02-02T01:38:27;98426.13;;;-0.52;75.31
61109;BME280;46995;55.740;37.402;2023-02-02T01:40:54;98434.84;;;-0.39;75.42
61109;BME280;46995;55.740;37.402;2023-02-02T01:43:47;98434.66;;;-0.36;75.05
61109;BME280;46995;55.740;37.402;2023-02-02T01:46:22;98403.09;;;-0.43;75.17
61109;BME280;46995;55.740;37.402;2023-02-02T01:48:54;98412.06;;;-0.34;74.64
61109;BME280;46995;55.740;37.402;2023-02-02T01:51:26;98410.13;;;-0.30;74.75
61109;BME280;46995;55.740;37.402;2023-02-02T01:53:54;98416.91;;;-0.28;74.68
61109;BME280;46995;55.740;37.402;2023-02-02T01:56:26;98454.25;;;-0.02;74.39
61109;BME280;46995;55.740;37.402;2023-02-02T01:58:53;98459.91;;;0.05;74.36
61109;BME280;46995;55.740;37.402;2023-02-02T02:01:19;98460.34;;;0.11;74.44
61109;BME280;46995;55.740;37.402;2023-02-02T02:03:45;98449.69;;;0.02;74.33
61109;BME280;46995;55.740;37.402;2023-02-02T02:06:16;98440.44;;;-0.03;74.23
61109;BME280;46995;55.740;37.402;2023-02-02T02:08:50;98448.97;;;-0.01;74.05
61109;BME280;46995;55.740;37.402;2023-02-02T02:11:19;98449.31;;;-0.07;74.31
61109;BME280;46995;55.740;37.402;2023-02-02T02:13:45;98443.47;;;-0.10;74.12
61109;BME280;46995;55.740;37.402;2023-02-02T02:22:31;98465.19;;;-0.11;73.88
61109;BME280;46995;55.740;37.402;2023-02-02T02:34:19;98449.69;;;-0.13;73.06
61109;BME280;46995;55.740;37.402;2023-02-02T02:42:28;98461.63;;;-0.10;73.05
61109;BME280;46995;55.740;37.402;2023-02-02T02:44:59;98466.19;;;-0.14;73.33
61109;BME280;46995;55.740;37.402;2023-02-02T02:47:29;98465.34;;;-0.14;72.91
61109;BME280;46995;55.740;37.402;2023-02-02T02:49:56;98456.16;;;-0.20;72.93
61109;BME280;46995;55.740;37.402;2023-02-02T02:52:22;98456.00;;;-0.17;72.96
61109;BME280;46995;55.740;37.402;2023-02-02T02:54:55;98440.31;;;-0.29;72.90
61109;BME280;46995;55.740;37.402;2023-02-02T03:02:40;98467.00;;;0.01;72.74
61109;BME280;46995;55.740;37.402;2023-02-02T03:07:43;98460.91;;;0.02;72.68
61109;BME280;46995;55.740;37.402;2023-02-02T03:10:14;98456.00;;;-0.03;72.56
61109;BME280;46995;55.740;37.402;2023-02-02T03:12:49;98460.25;;;-0.02;72.49
61109;BME280;46995;55.740;37.402;2023-02-02T03:15:16;98459.22;;;0.01;72.50
61109;BME280;46995;55.740;37.402;2023-02-02T03:17:44;98457.28;;;-0.10;72.32
61109;BME280;46995;55.740;37.402;2023-02-02T03:20:11;98444.78;;;-0.17;72.17
61109;BME280;46995;55.740;37.402;2023-02-02T03:22:37;98460.06;;;-0.13;72.37
61109;BME280;46995;55.740;37.402;2023-02-02T03:25:04;98462.66;;;-0.13;72.32
61109;BME280;46995;55.740;37.402;2023-02-02T03:27:31;98449.69;;;-0.27;72.54
61109;BME280;46995;55.740;37.402;2023-02-02T03:29:57;98468.13;;;-0.17;72.86
61109;BME280;46995;55.740;37.402;2023-02-02T03:32:23;98447.81;;;-0.25;72.74
61109;BME280;46995;55.740;37.402;2023-02-02T03:34:49;98475.56;;;-0.11;72.47
61109;BME280;46995;55.740;37.402;2023-02-02T03:37:17;98475.44;;;-0.10;72.49
61109;BME280;46995;55.740;37.402;2023-02-02T03:39:43;98478.16;;;-0.11;72.28
61109;BME280;46995;55.740;37.402;2023-02-02T03:42:09;98465.81;;;-0.22;72.32
61109;BME280;46995;55.740;37.402;2023-02-02T03:44:35;98482.78;;;-0.16;72.11
61109;BME280;46995;55.740;37.402;2023-02-02T03:47:00;98474.88;;;-0.15;72.38
61109;BME280;46995;55.740;37.402;2023-02-02T03:49:27;98479.72;;;-0.09;72.22
61109;BME280;46995;55.740;37.402;2023-02-02T03:51:53;98452.66;;;-0.19;72.02
61109;BME280;46995;55.740;37.402;2023-02-02T03:54:19;98471.38;;;-0.14;71.99
61109;BME280;46995;55.740;37.402;2023-02-02T03:56:45;98470.38;;;-0.11;72.02
61109;BME280;46995;55.740;37.402;2023-02-02T03:59:10;98480.47;;;-0.07;71.97
61109;BME280;46995;55.740;37.402;2023-02-02T04:01:36;98459.13;;;-0.26;71.80
61109;BME280;46995;55.740;37.402;2023-02-02T04:04:02;98437.53;;;-0.40;72.02
61109;BME280;46995;55.740;37.402;2023-02-02T04:06:28;98481.94;;;-0.17;72.06
61109;BME280;46995;55.740;37.402;2023-02-02T04:08:54;98456.91;;;-0.32;71.95
61109;BME280;46995;55.740;37.402;2023-02-02T04:11:20;98473.41;;;-0.33;72.17
61109;BME280;46995;55.740;37.402;2023-02-02T04:13:46;98421.13;;;-0.55;72.28
61109;BME280;46995;55.740;37.402;2023-02-02T04:16:11;98437.25;;;-0.50;72.29
61109;BME280;46995;55.740;37.402;2023-02-02T04:18:39;98485.25;;;-0.15;72.50
61109;BME280;46995;55.740;37.402;2023-02-02T04:21:06;98470.25;;;-0.24;72.06
61109;BME280;46995;55.740;37.402;2023-02-02T04:23:32;98495.09;;;-0.20;72.05
61109;BME280;46995;55.740;37.402;2023-02-02T04:25:58;98472.28;;;-0.29;71.87
61109;BME280;46995;55.740;37.402;2023-02-02T04:28:25;98489.16;;;-0.22;72.31
61109;BME280;46995;55.740;37.402;2023-02-02T04:30:52;98472.19;;;-0.27;72.16
61109;BME280;46995;55.740;37.402;2023-02-02T04:33:19;98484.63;;;-0.18;71.98
61109;BME280;46995;55.740;37.402;2023-02-02T04:35:46;98466.63;;;-0.35;72.03
61109;BME280;46995;55.740;37.402;2023-02-02T04:38:12;98469.13;;;-0.34;72.28
61109;BME280;46995;55.740;37.402;2023-02-02T04:40:43;98496.75;;;-0.33;72.09
61109;BME280;46995;55.740;37.402;2023-02-02T04:43:09;98498.97;;;-0.27;72.30
61109;BME280;46995;55.740;37.402;2023-02-02T04:45:36;98465.69;;;-0.49;72.33
61109;BME280;46995;55.740;37.402;2023-02-02T04:48:03;98499.22;;;-0.31;72.18
61109;BME280;46995;55.740;37.402;2023-02-02T04:50:29;98451.03;;;-0.64;72.44
61109;BME280;46995;55.740;37.402;2023-02-02T04:52:55;98505.63;;;-0.37;72.74
61109;BME280;46995;55.740;37.402;2023-02-02T04:55:24;98511.75;;;-0.38;73.02
61109;BME280;46995;55.740;37.402;2023-02-02T04:57:50;98489.28;;;-0.53;72.80
61109;BME280;46995;55.740;37.402;2023-02-02T05:00:16;98447.88;;;-0.69;72.67
61109;BME280;46995;55.740;37.402;2023-02-02T05:02:43;98495.25;;;-0.37;73.01
61109;BME280;46995;55.740;37.402;2023-02-02T05:05:11;98505.09;;;-0.28;72.97
61109;BME280;46995;55.740;37.402;2023-02-02T05:07:38;98446.47;;;-0.60;72.50
61109;BME280;46995;55.740;37.402;2023-02-02T05:10:06;98472.06;;;-0.40;72.22
61109;BME280;46995;55.740;37.402;2023-02-02T05:12:32;98483.94;;;-0.36;72.35
61109;BME280;46995;55.740;37.402;2023-02-02T05:14:57;98514.00;;;-0.18;72.47
61109;BME280;46995;55.740;37.402;2023-02-02T05:17:26;98461.50;;;-0.51;72.17
61109;BME280;46995;55.740;37.402;2023-02-02T05:19:52;98428.31;;;-0.74;72.73
61109;BME280;46995;55.740;37.402;2023-02-02T05:22:18;98493.38;;;-0.35;72.62
61109;BME280;46995;55.740;37.402;2023-02-02T05:24:43;98479.38;;;-0.47;72.53
61109;BME280;46995;55.740;37.402;2023-02-02T05:27:10;98507.75;;;-0.29;72.55
61109;BME280;46995;55.740;37.402;2023-02-02T05:29:39;98497.66;;;-0.34;72.56
61109;BME280;46995;55.740;37.402;2023-02-02T05:32:05;98466.03;;;-0.55;72.70
61109;BME280;46995;55.740;37.402;2023-02-02T05:34:31;98464.84;;;-0.49;72.62
61109;BME280;46995;55.740;37.402;2023-02-02T05:36:57;98473.13;;;-0.28;72.80
61109;BME280;46995;55.740;37.402;2023-02-02T05:39:23;98461.44;;;-0.35;72.53
61109;BME280;46995;55.740;37.402;2023-02-02T05:41:49;98495.84;;;-0.18;72.69
61109;BME280;46995;55.740;37.402;2023-02-02T05:44:14;98505.66;;;-0.09;72.92
61109;BME280;46995;55.740;37.402;2023-02-02T05:46:40;98493.44;;;-0.07;72.48
61109;BME280;46995;55.740;37.402;2023-02-02T05:49:12;98470.63;;;-0.16;72.02
61109;BME280;46995;55.740;37.402;2023-02-02T05:51:47;98519.03;;;0.14;72.25
61109;BME280;46995;55.740;37.402;2023-02-02T05:54:14;98501.59;;;0.02;72.55
61109;BME280;46995;55.740;37.402;2023-02-02T05:56:50;98516.59;;;0.11;72.50
61109;BME280;46995;55.740;37.402;2023-02-02T05:59:17;98495.75;;;-0.02;72.46
61109;BME280;46995;55.740;37.402;2023-02-02T06:01:44;98508.66;;;-0.01;72.89
61109;BME280;46995;55.740;37.402;2023-02-02T06:04:10;98521.22;;;0.06;72.75
61109;BME280;46995;55.740;37.402;2023-02-02T06:06:37;98523.66;;;0.09;72.56
61109;BME280;46995;55.740;37.402;2023-02-02T06:09:05;98530.97;;;0.16;72.45
61109;BME280;46995;55.740;37.402;2023-02-02T06:11:32;98534.97;;;0.22;72.22
61109;BME280;46995;55.740;37.402;2023-02-02T06:14:00;98533.13;;;0.24;72.02
61109;BME280;46995;55.740;37.402;2023-02-02T06:16:26;98529.59;;;0.25;72.23
61109;BME280;46995;55.740;37.402;2023-02-02T06:18:52;98528.13;;;0.21;72.19
61109;BME280;46995;55.740;37.402;2023-02-02T06:21:18;98515.41;;;0.16;72.14
61109;BME280;46995;55.740;37.402;2023-02-02T06:23:49;98510.97;;;0.18;72.10
61109;BME280;46995;55.740;37.402;2023-02-02T06:26:16;98490.22;;;0.04;72.36
61109;BME280;46995;55.740;37.402;2023-02-02T06:28:47;98538.59;;;0.33;72.62
61109;BME280;46995;55.740;37.402;2023-02-02T06:31:13;98521.53;;;0.29;72.28
61109;BME280;46995;55.740;37.402;2023-02-02T06:33:47;98536.56;;;0.38;72.13
61109;BME280;46995;55.740;37.402;2023-02-02T06:36:13;98542.38;;;0.42;71.95
61109;BME280;46995;55.740;37.402;2023-02-02T06:38:40;98537.38;;;0.39;71.79
61109;BME280;46995;55.740;37.402;2023-02-02T06:41:05;98526.53;;;0.32;72.05
61109;BME280;46995;55.740;37.402;2023-02-02T06:43:32;98540.81;;;0.39;72.52
61109;BME280;46995;55.740;37.402;2023-02-02T06:45:58;98543.34;;;0.41;71.93
61109;BME280;46995;55.740;37.402;2023-02-02T06:48:24;98545.09;;;0.40;71.63
61109;BME280;46995;55.740;37.402;2023-02-02T06:50:50;98541.75;;;0.38;71.39
61109;BME280;46995;55.740;37.402;2023-02-02T06:53:16;98535.72;;;0.38;71.58
61109;BME280;46995;55.740;37.402;2023-02-02T06:55:52;98536.63;;;0.37;71.92
61109;BME280;46995;55.740;37.402;2023-02-02T06:58:19;98545.56;;;0.47;71.98
61109;BME280;46995;55.740;37.402;2023-02-02T07:00:46;98542.41;;;0.56;70.99
61109;BME280;46995;55.740;37.402;2023-02-02T07:03:14;98546.25;;;0.63;71.08
61109;BME280;46995;55.740;37.402;2023-02-02T07:05:40;98545.72;;;0.72;72.03
61109;BME280;46995;55.740;37.402;2023-02-02T07:08:06;98556.47;;;0.80;71.17
61109;BME280;46995;55.740;37.402;2023-02-02T07:10:32;98511.09;;;0.58;70.69
61109;BME280;46995;55.740;37.402;2023-02-02T07:12:58;98509.09;;;0.63;70.70
61109;BME280;46995;55.740;37.402;2023-02-02T07:15:24;98549.97;;;0.88;70.51
61109;BME280;46995;55.740;37.402;2023-02-02T07:17:50;98559.97;;;0.94;70.66
61109;BME280;46995;55.740;37.402;2023-02-02T07:20:21;98558.31;;;0.93;70.59
61109;BME280;46995;55.740;37.402;2023-02-02T07:22:47;98563.03;;;0.86;70.52
61109;BME280;46995;55.740;37.402;2023-02-02T07:25:14;98565.56;;;0.73;70.92
61109;BME280;46995;55.740;37.402;2023-02-02T07:27:39;98570.03;;;0.71;70.46
61109;BME280;46995;55.740;37.402;2023-02-02T07:30:06;98561.75;;;0.65;70.68
61109;BME280;46995;55.740;37.402;2023-02-02T07:32:32;98557.44;;;0.51;70.78
61109;BME280;46995;55.740;37.402;2023-02-02T07:34:57;98570.59;;;0.62;71.02
61109;BME280;46995;55.740;37.402;2023-02-02T07:37:23;98544.53;;;0.50;70.95
61109;BME280;46995;55.740;37.402;2023-02-02T07:39:49;98557.06;;;0.57;70.32
61109;BME280;46995;55.740;37.402;2023-02-02T07:42:15;98566.88;;;0.66;70.45
61109;BME280;46995;55.740;37.402;2023-02-02T07:44:41;98551.66;;;0.60;70.02
61109;BME280;46995;55.740;37.402;2023-02-02T07:47:07;98558.53;;;0.61;70.01
61109;BME280;46995;55.740;37.402;2023-02-02T07:49:32;98546.72;;;0.70;69.90
61109;BME280;46995;55.740;37.402;2023-02-02T07:51:58;98526.81;;;0.56;69.99
61109;BME280;46995;55.740;37.402;2023-02-02T07:54:24;98539.03;;;0.68;69.67
61109;BME280;46995;55.740;37.402;2023-02-02T07:56:50;98563.25;;;0.83;69.51
61109;BME280;46995;55.740;37.402;2023-02-02T07:59:16;98552.19;;;0.79;69.76
61109;BME280;46995;55.740;37.402;2023-02-02T08:01:42;98568.16;;;0.88;69.49
61109;BME280;46995;55.740;37.402;2023-02-02T08:04:09;98573.31;;;1.02;70.27
61109;BME280;46995;55.740;37.402;2023-02-02T08:06:37;98549.28;;;0.84;69.07
61109;BME280;46995;55.740;37.402;2023-02-02T08:09:06;98556.16;;;0.85;69.14
61109;BME280;46995;55.740;37.402;2023-02-02T08:11:32;98569.28;;;0.83;69.33
61109;BME280;46995;55.740;37.402;2023-02-02T08:14:00;98561.47;;;0.83;69.50
61109;BME280;46995;55.740;37.402;2023-02-02T08:16:29;98562.84;;;0.89;69.07
61109;BME280;46995;55.740;37.402;2023-02-02T08:18:56;98557.19;;;0.97;69.03
61109;BME280;46995;55.740;37.402;2023-02-02T08:21:22;98554.13;;;0.90;68.67
61109;BME280;46995;55.740;37.402;2023-02-02T08:23:48;98559.03;;;0.95;68.67
61109;BME280;46995;55.740;37.402;2023-02-02T08:28:47;98548.16;;;1.02;68.54
61109;BME280;46995;55.740;37.402;2023-02-02T08:31:20;98558.25;;;1.07;68.59
61109;BME280;46995;55.740;37.402;2023-02-02T08:33:56;98554.97;;;1.17;68.79
61109;BME280;46995;55.740;37.402;2023-02-02T08:36:24;98553.16;;;1.32;67.65
61109;BME280;46995;55.740;37.402;2023-02-02T08:38:51;98555.75;;;1.32;67.47
61109;BME280;46995;55.740;37.402;2023-02-02T08:41:19;98568.75;;;1.32;67.52
61109;BME280;46995;55.740;37.402;2023-02-02T08:43:49;98544.28;;;1.22;67.64
61109;BME280;46995;55.740;37.402;2023-02-02T08:46:16;98567.84;;;1.33;67.70
61109;BME280;46995;55.740;37.402;2023-02-02T08:48:42;98564.31;;;1.34;67.49
61109;BME280;46995;55.740;37.402;2023-02-02T08:51:11;98553.00;;;1.21;67.38
61109;BME280;46995;55.740;37.402;2023-02-02T08:53:37;98551.53;;;1.17;67.51
61109;BME280;46995;55.740;37.402;2023-02-02T08:56:17;98558.41;;;1.18;67.35
61109;BME280;46995;55.740;37.402;2023-02-02T08:58:46;98563.91;;;1.13;67.32
61109;BME280;46995;55.740;37.402;2023-02-02T09:01:18;98571.22;;;1.21;67.78
61109;BME280;46995;55.740;37.402;2023-02-02T09:03:44;98563.22;;;1.24;67.70
61109;BME280;46995;55.740;37.402;2023-02-02T09:06:13;98570.13;;;1.25;67.30
61109;BME280;46995;55.740;37.402;2023-02-02T09:08:40;98548.66;;;1.21;67.25
61109;BME280;46995;55.740;37.402;2023-02-02T09:11:08;98554.31;;;1.28;67.41
61109;BME280;46995;55.740;37.402;2023-02-02T09:13:35;98541.34;;;1.14;67.54
61109;BME280;46995;55.740;37.402;2023-02-02T09:16:02;98565.59;;;1.41;68.08
61109;BME280;46995;55.740;37.402;2023-02-02T09:18:30;98547.03;;;1.33;67.78
61109;BME280;46995;55.740;37.402;2023-02-02T09:21:00;98556.06;;;1.54;67.63
61109;BME280;46995;55.740;37.402;2023-02-02T09:23:31;98550.44;;;1.60;66.58
61109;BME280;46995;55.740;37.402;2023-02-02T09:26:11;98540.19;;;1.72;66.04
61109;BME280;46995;55.740;37.402;2023-02-02T09:28:38;98550.91;;;1.80;65.89
61109;BME280;46995;55.740;37.402;2023-02-02T09:31:05;98560.06;;;1.85;65.43
61109;BME280;46995;55.740;37.402;2023-02-02T09:33:36;98550.47;;;1.73;65.92
61109;BME280;46995;55.740;37.402;2023-02-02T09:36:53;98477.34;;;1.38;65.71
61109;BME280;46995;55.740;37.402;2023-02-02T09:39:43;98553.59;;;1.78;65.86
61109;BME280;46995;55.740;37.402;2023-02-02T09:45:38;98541.72;;;1.61;65.45
61109;BME280;46995;55.740;37.402;2023-02-02T09:51:11;98550.22;;;1.51;65.97
61109;BME280;46995;55.740;37.402;2023-02-02T09:53:55;98528.88;;;1.46;66.10
61109;BME280;46995;55.740;37.402;2023-02-02T09:56:28;98534.09;;;1.58;65.70
61109;BME280;46995;55.740;37.402;2023-02-02T09:58:59;98553.19;;;1.72;65.61
61109;BME280;46995;55.740;37.402;2023-02-02T10:01:37;98533.31;;;1.70;65.44
61109;BME280;46995;55.740;37.402;2023-02-02T10:06:40;98545.69;;;1.67;65.26
61109;BME280;46995;55.740;37.402;2023-02-02T10:12:27;98533.81;;;1.76;65.60
61109;BME280;46995;55.740;37.402;2023-02-02T10:14:58;98522.78;;;1.72;64.87
61109;BME280;46995;55.740;37.402;2023-02-02T10:20:31;98525.94;;;1.77;65.42
61109;BME280;46995;55.740;37.402;2023-02-02T10:23:14;98514.25;;;1.70;65.08
61109;BME280;46995;55.740;37.402;2023-02-02T10:26:13;98532.78;;;1.78;65.59
61109;BME280;46995;55.740;37.402;2023-02-02T10:31:17;98502.78;;;1.60;65.04
61109;BME280;46995;55.740;37.402;2023-02-02T10:33:53;98512.13;;;1.62;65.16
61109;BME280;46995;55.740;37.402;2023-02-02T10:39:23;98527.38;;;1.81;64.76
61109;BME280;46995;55.740;37.402;2023-02-02T10:42:09;98522.59;;;1.75;64.66
61109;BME280;46995;55.740;37.402;2023-02-02T10:45:10;98514.25;;;1.70;64.77
61109;BME280;46995;55.740;37.402;2023-02-02T10:47:39;98511.94;;;1.65;65.03
61109;BME280;46995;55.740;37.402;2023-02-02T10:50:33;98521.56;;;1.90;64.69
61109;BME280;46995;55.740;37.402;2023-02-02T10:53:02;98497.28;;;1.90;64.26
61109;BME280;46995;55.740;37.402;2023-02-02T10:58:16;98504.69;;;2.21;64.15
61109;BME280;46995;55.740;37.402;2023-02-02T11:00:50;98493.44;;;2.21;63.94
61109;BME280;46995;55.740;37.402;2023-02-02T11:03:22;98501.97;;;2.35;64.10
61109;BME280;46995;55.740;37.402;2023-02-02T11:05:49;98492.81;;;2.30;64.11
61109;BME280;46995;55.740;37.402;2023-02-02T11:08:42;98504.44;;;2.49;63.31
61109;BME280;46995;55.740;37.402;2023-02-02T11:11:18;98512.19;;;2.51;63.63
61109;BME280;46995;55.740;37.402;2023-02-02T11:13:52;98514.22;;;2.59;64.62
61109;BME280;46995;55.740;37.402;2023-02-02T11:16:22;98487.47;;;2.31;63.79
61109;BME280;46995;55.740;37.402;2023-02-02T11:18:48;98498.03;;;2.17;63.96
61109;BME280;46995;55.740;37.402;2023-02-02T11:21:25;98514.91;;;2.24;64.38
61109;BME280;46995;55.740;37.402;2023-02-02T11:24:04;98503.00;;;2.20;64.29
61109;BME280;46995;55.740;37.402;2023-02-02T11:27:04;98514.50;;;2.30;64.14
61109;BME280;46995;55.740;37.402;2023-02-02T11:29:54;98493.22;;;2.11;63.77
61109;BME280;46995;55.740;37.402;2023-02-02T11:37:36;98515.53;;;2.40;63.66
61109;BME280;46995;55.740;37.402;2023-02-02T11:42:51;98511.56;;;2.22;64.24
61109;BME280;46995;55.740;37.402;2023-02-02T11:45:36;98524.59;;;2.22;64.37
61109;BME280;46995;55.740;37.402;2023-02-02T11:50:31;98511.56;;;1.97;65.42
61109;BME280;46995;55.740;37.402;2023-02-02T11:53:01;98522.09;;;2.08;64.73
61109;BME280;46995;55.740;37.402;2023-02-02T11:55:28;98532.63;;;2.19;65.46
61109;BME280;46995;55.740;37.402;2023-02-02T12:00:56;98521.56;;;2.03;65.27
61109;BME280;46995;55.740;37.402;2023-02-02T12:03:36;98529.06;;;1.95;64.82
61109;BME280;46995;55.740;37.402;2023-02-02T12:08:48;98538.81;;;1.79;65.47
61109;BME280;46995;55.740;37.402;2023-02-02T12:16:47;98544.63;;;1.69;65.92
61109;BME280;46995;55.740;37.402;2023-02-02T12:19:31;98545.38;;;1.72;66.11
61109;BME280;46995;55.740;37.402;2023-02-02T12:22:28;98549.22;;;1.79;65.55
61109;BME280;46995;55.740;37.402;2023-02-02T12:30:53;98547.16;;;1.84;65.42
61109;BME280;46995;55.740;37.402;2023-02-02T12:41:59;98540.31;;;1.83;65.47
61109;BME280;46995;55.740;37.402;2023-02-02T12:44:51;98549.22;;;1.79;65.53
61109;BME280;46995;55.740;37.402;2023-02-02T12:47:35;98536.75;;;1.71;65.54
61109;BME280;46995;55.740;37.402;2023-02-02T13:02:26;98557.38;;;1.47;66.22
61109;BME280;46995;55.740;37.402;2023-02-02T13:04:46;98559.78;;;1.50;66.22
61109;BME280;46995;55.740;37.402;2023-02-02T13:07:48;98554.28;;;1.55;66.72
61109;BME280;46995;55.740;37.402;2023-02-02T13:12:55;98542.13;;;1.55;65.80
61109;BME280;46995;55.740;37.402;2023-02-02T13:15:26;98545.66;;;1.54;66.55
61109;BME280;46995;55.740;37.402;2023-02-02T13:17:56;98565.22;;;1.60;66.13
61109;BME280;46995;55.740;37.402;2023-02-02T13:23:04;98555.59;;;1.48;66.30
61109;BME280;46995;55.740;37.402;2023-02-02T13:25:39;98538.41;;;1.33;66.48
61109;BME280;46995;55.740;37.402;2023-02-02T13:28:16;98534.53;;;1.25;67.29
61109;BME280;46995;55.740;37.402;2023-02-02T13:30:46;98542.53;;;1.22;67.21
61109;BME280;46995;55.740;37.402;2023-02-02T13:33:28;98524.06;;;1.13;67.48
61109;BME280;46995;55.740;37.402;2023-02-02T13:36:17;98539.53;;;1.28;67.56
61109;BME280;46995;55.740;37.402;2023-02-02T13:38:53;98531.19;;;1.23;67.34
61109;BME280;46995;55.740;37.402;2023-02-02T13:41:20;98552.22;;;1.33;67.02
61109;BME280;46995;55.740;37.402;2023-02-02T13:44:30;98566.22;;;1.45;67.69
61109;BME280;46995;55.740;37.402;2023-02-02T13:46:56;98576.41;;;1.35;67.70
61109;BME280;46995;55.740;37.402;2023-02-02T13:49:30;98551.25;;;1.21;67.93
61109;BME280;46995;55.740;37.402;2023-02-02T13:52:12;98567.22;;;1.30;67.80
61109;BME280;46995;55.740;37.402;2023-02-02T14:00:20;98574.41;;;1.12;69.00
61109;BME280;46995;55.740;37.402;2023-02-02T14:02:53;98571.25;;;1.07;69.17
61109;BME280;46995;55.740;37.402;2023-02-02T14:10:43;98579.66;;;0.98;69.60
61109;BME280;46995;55.740;37.402;2023-02-02T14:13:23;98569.41;;;0.95;69.42
61109;BME280;46995;55.740;37.402;2023-02-02T14:16:23;98573.69;;;0.96;69.52
61109;BME280;46995;55.740;37.402;2023-02-02T14:24:43;98582.63;;;0.92;69.61
61109;BME280;46995;55.740;37.402;2023-02-02T14:32:30;98586.34;;;0.88;69.72
61109;BME280;46995;55.740;37.402;2023-02-02T14:40:31;98598.97;;;0.79;70.20
61109;BME280;46995;55.740;37.402;2023-02-02T14:43:01;98598.25;;;0.77;70.08
61109;BME280;46995;55.740;37.402;2023-02-02T14:48:46;98602.84;;;0.87;70.10
61109;BME280;46995;55.740;37.402;2023-02-02T14:51:27;98592.00;;;0.80;70.19
61109;BME280;46995;55.740;37.402;2023-02-02T14:53:56;98602.50;;;0.78;69.95
61109;BME280;46995;55.740;37.402;2023-02-02T14:59:15;98584.13;;;0.67;70.34
61109;BME280;46995;55.740;37.402;2023-02-02T15:01:43;98594.13;;;0.73;70.36
61109;BME280;46995;55.740;37.402;2023-02-02T15:06:47;98608.81;;;0.89;70.35
61109;BME280;46995;55.740;37.402;2023-02-02T15:25:23;98617.16;;;0.94;70.67
61109;BME280;46995;55.740;37.402;2023-02-02T15:33:42;98624.00;;;0.95;70.49
61109;BME280;46995;55.740;37.402;2023-02-02T15:36:22;98613.81;;;0.92;70.66
61109;BME280;46995;55.740;37.402;2023-02-02T15:38:52;98594.97;;;0.74;70.75
61109;BME280;46995;55.740;37.402;2023-02-02T15:41:33;98620.22;;;0.86;70.81
61109;BME280;46995;55.740;37.402;2023-02-02T15:44:18;98619.84;;;0.92;70.97
61109;BME280;46995;55.740;37.402;2023-02-02T15:46:45;98599.31;;;0.73;70.67
61109;BME280;46995;55.740;37.402;2023-02-02T15:51:49;98634.31;;;0.96;70.73
61109;BME280;46995;55.740;37.402;2023-02-02T15:54:26;98632.56;;;0.97;70.68
61109;BME280;46995;55.740;37.402;2023-02-02T15:56:53;98641.66;;;1.04;70.90
61109;BME280;46995;55.740;37.402;2023-02-02T15:59:24;98640.16;;;1.00;70.82
61109;BME280;46995;55.740;37.402;2023-02-02T16:04:41;98629.59;;;0.89;70.70
61109;BME280;46995;55.740;37.402;2023-02-02T16:07:14;98637.78;;;0.82;71.17